sensor_id;sensor_type;location;lat;lon;timestamp;temperature;humidity
59234;DHT22;60776;51.702;7.462;2023-07-02T00:01:05;19.70;99.90
59234;DHT22;60776;51.702;7.462;2023-07-02T00:03:33;19.70;99.90
59234;DHT22;60776;51.702;7.462;2023-07-02T00:05:59;19.70;99.90
59234;DHT22;60776;51.702;7.462;2023-07-02T00:08:25;19.60;99.90
59234;DHT22;60776;51.702;7.462;2023-07-02T00:10:58;19.60;99.90
59234;DHT22;60776;51.702;7.462;2023-07-02T00:13:26;19.50;99.90
59234;DHT22;60776;51.702;7.462;2023-07-02T00:15:52;19.60;99.90
59234;DHT22;60776;51.702;7.462;2023-07-02T00:18:17;19.50;99.90
59234;DHT22;60776;51.702;7.462;2023-07-02T00:20:43;19.50;99.90
59234;DHT22;60776;51.702;7.462;2023-07-02T00:23:09;19.50;99.90
59234;DHT22;60776;51.702;7.462;2023-07-02T00:25:36;19.50;99.90
59234;DHT22;60776;51.702;7.462;2023-07-02T00:28:02;19.50;99.90
59234;DHT22;60776;51.702;7.462;2023-07-02T00:30:28;19.50;99.90
59234;DHT22;60776;51.702;7.462;2023-07-02T00:33:02;19.50;99.90
59234;DHT22;60776;51.702;7.462;2023-07-02T00:35:31;19.50;99.90
59234;DHT22;60776;51.702;7.462;2023-07-02T00:37:56;19.50;99.90
59234;DHT22;60776;51.702;7.462;2023-07-02T00:40:22;19.40;99.90
59234;DHT22;60776;51.702;7.462;2023-07-02T00:42:47;19.40;99.90
59234;DHT22;60776;51.702;7.462;2023-07-02T00:45:21;19.40;99.90
59234;DHT22;60776;51.702;7.462;2023-07-02T00:47:49;19.40;99.90
59234;DHT22;60776;51.702;7.462;2023-07-02T00:50:14;19.30;99.90
59234;DHT22;60776;51.702;7.462;2023-07-02T00:52:50;19.30;99.90
59234;DHT22;60776;51.702;7.462;2023-07-02T00:55:15;19.30;99.90
59234;DHT22;60776;51.702;7.462;2023-07-02T00:57:49;19.30;99.90
59234;DHT22;60776;51.702;7.462;2023-07-02T01:00:17;19.20;99.90
59234;DHT22;60776;51.702;7.462;2023-07-02T01:02:53;19.20;99.90
59234;DHT22;60776;51.702;7.462;2023-07-02T01:05:27;19.20;99.90
59234;DHT22;60776;51.702;7.462;2023-07-02T01:08:04;19.30;99.90
59234;DHT22;60776;51.702;7.462;2023-07-02T01:10:31;19.30;99.90
59234;DHT22;60776;51.702;7.462;2023-07-02T01:13:01;19.30;99.90
59234;DHT22;60776;51.702;7.462;2023-07-02T01:15:28;19.30;99.90
59234;DHT22;60776;51.702;7.462;2023-07-02T01:17:54;19.30;99.90
59234;DHT22;60776;51.702;7.462;2023-07-02T01:20:21;19.20;99.90
59234;DHT22;60776;51.702;7.462;2023-07-02T01:22:48;19.20;99.90
59234;DHT22;60776;51.702;7.462;2023-07-02T01:25:17;19.10;99.90
59234;DHT22;60776;51.702;7.462;2023-07-02T01:27:45;19.00;99.90
59234;DHT22;60776;51.702;7.462;2023-07-02T01:30:18;18.90;99.90
59234;DHT22;60776;51.702;7.462;2023-07-02T01:32:47;18.80;99.90
59234;DHT22;60776;51.702;7.462;2023-07-02T01:35:13;18.80;99.90
59234;DHT22;60776;51.702;7.462;2023-07-02T01:37:38;18.70;99.90
59234;DHT22;60776;51.702;7.462;2023-07-02T01:40:07;18.70;99.90
59234;DHT22;60776;51.702;7.462;2023-07-02T01:42:33;18.60;99.90
59234;DHT22;60776;51.702;7.462;2023-07-02T01:45:08;18.60;99.90
59234;DHT22;60776;51.702;7.462;2023-07-02T01:47:34;18.60;99.90
59234;DHT22;60776;51.702;7.462;2023-07-02T01:49:59;18.60;99.90
59234;DHT22;60776;51.702;7.462;2023-07-02T01:52:25;18.70;99.90
59234;DHT22;60776;51.702;7.462;2023-07-02T01:54:53;18.80;99.90
59234;DHT22;60776;51.702;7.462;2023-07-02T01:57:26;18.80;99.90
59234;DHT22;60776;51.702;7.462;2023-07-02T01:59:54;18.80;99.90
59234;DHT22;60776;51.702;7.462;2023-07-02T02:02:27;19.00;99.90
59234;DHT22;60776;51.702;7.462;2023-07-02T02:04:53;19.00;99.90
59234;DHT22;60776;51.702;7.462;2023-07-02T02:07:21;18.90;99.90
59234;DHT22;60776;51.702;7.462;2023-07-02T02:09:54;19.00;99.90
59234;DHT22;60776;51.702;7.462;2023-07-02T02:12:23;19.00;99.90
59234;DHT22;60776;51.702;7.462;2023-07-02T02:14:48;19.00;99.90
59234;DHT22;60776;51.702;7.462;2023-07-02T02:17:14;19.00;99.90
59234;DHT22;60776;51.702;7.462;2023-07-02T02:19:47;18.90;99.90
59234;DHT22;60776;51.702;7.462;2023-07-02T02:22:13;19.00;99.90
59234;DHT22;60776;51.702;7.462;2023-07-02T02:24:46;19.00;99.90
59234;DHT22;60776;51.702;7.462;2023-07-02T02:27:11;18.90;99.90
59234;DHT22;60776;51.702;7.462;2023-07-02T02:29:37;19.00;99.90
59234;DHT22;60776;51.702;7.462;2023-07-02T02:32:03;19.00;99.90
59234;DHT22;60776;51.702;7.462;2023-07-02T02:34:29;19.00;99.90
59234;DHT22;60776;51.702;7.462;2023-07-02T02:36:54;18.90;99.90
59234;DHT22;60776;51.702;7.462;2023-07-02T02:39:23;19.00;99.90
59234;DHT22;60776;51.702;7.462;2023-07-02T02:41:56;19.00;99.90
59234;DHT22;60776;51.702;7.462;2023-07-02T02:44:21;19.10;99.90
59234;DHT22;60776;51.702;7.462;2023-07-02T02:46:47;19.00;99.90
59234;DHT22;60776;51.702;7.462;2023-07-02T02:49:13;19.00;99.90
59234;DHT22;60776;51.702;7.462;2023-07-02T02:51:41;19.00;99.90
59234;DHT22;60776;51.702;7.462;2023-07-02T02:54:06;19.00;99.90
59234;DHT22;60776;51.702;7.462;2023-07-02T02:56:37;19.00;99.90
59234;DHT22;60776;51.702;7.462;2023-07-02T02:59:03;19.10;99.90
59234;DHT22;60776;51.702;7.462;2023-07-02T03:01:36;19.10;99.90
59234;DHT22;60776;51.702;7.462;2023-07-02T03:04:04;19.10;99.90
59234;DHT22;60776;51.702;7.462;2023-07-02T03:06:33;19.00;99.90
59234;DHT22;60776;51.702;7.462;2023-07-02T03:08:59;19.00;99.90
59234;DHT22;60776;51.702;7.462;2023-07-02T03:11:25;19.00;99.90
59234;DHT22;60776;51.702;7.462;2023-07-02T03:13:58;19.00;99.90
59234;DHT22;60776;51.702;7.462;2023-07-02T03:16:31;19.10;99.90
59234;DHT22;60776;51.702;7.462;2023-07-02T03:18:58;19.10;99.90
59234;DHT22;60776;51.702;7.462;2023-07-02T03:21:28;19.10;99.90
59234;DHT22;60776;51.702;7.462;2023-07-02T03:24:04;19.00;99.90
59234;DHT22;60776;51.702;7.462;2023-07-02T03:26:32;19.00;99.90
59234;DHT22;60776;51.702;7.462;2023-07-02T03:29:04;19.10;99.90
59234;DHT22;60776;51.702;7.462;2023-07-02T03:31:38;19.10;99.90
59234;DHT22;60776;51.702;7.462;2023-07-02T03:34:13;19.00;99.90
59234;DHT22;60776;51.702;7.462;2023-07-02T03:36:41;19.00;99.90
59234;DHT22;60776;51.702;7.462;2023-07-02T03:39:16;19.00;99.90
59234;DHT22;60776;51.702;7.462;2023-07-02T03:41:45;19.00;99.90
59234;DHT22;60776;51.702;7.462;2023-07-02T03:44:18;19.10;99.90
59234;DHT22;60776;51.702;7.462;2023-07-02T03:46:45;19.10;99.90
59234;DHT22;60776;51.702;7.462;2023-07-02T03:49:22;19.00;99.90
59234;DHT22;60776;51.702;7.462;2023-07-02T03:51:52;19.00;99.90
59234;DHT22;60776;51.702;7.462;2023-07-02T03:54:20;19.00;99.90
59234;DHT22;60776;51.702;7.462;2023-07-02T03:56:46;19.00;99.90
59234;DHT22;60776;51.702;7.462;2023-07-02T03:59:19;19.00;99.90
59234;DHT22;60776;51.702;7.462;2023-07-02T04:01:47;19.10;99.90
59234;DHT22;60776;51.702;7.462;2023-07-02T04:04:20;19.00;99.90
59234;DHT22;60776;51.702;7.462;2023-07-02T04:06:53;19.00;99.90
59234;DHT22;60776;51.702;7.462;2023-07-02T04:09:21;19.00;99.90
59234;DHT22;60776;51.702;7.462;2023-07-02T04:11:47;19.00;99.90
59234;DHT22;60776;51.702;7.462;2023-07-02T04:14:12;19.10;99.90
59234;DHT22;60776;51.702;7.462;2023-07-02T04:16:42;19.20;99.90
59234;DHT22;60776;51.702;7.462;2023-07-02T04:19:11;19.20;99.90
59234;DHT22;60776;51.702;7.462;2023-07-02T04:21:37;19.30;99.90
59234;DHT22;60776;51.702;7.462;2023-07-02T04:24:03;19.40;99.90
59234;DHT22;60776;51.702;7.462;2023-07-02T04:26:29;19.50;99.90
59234;DHT22;60776;51.702;7.462;2023-07-02T04:28:55;19.50;99.90
59234;DHT22;60776;51.702;7.462;2023-07-02T04:31:21;19.60;99.90
59234;DHT22;60776;51.702;7.462;2023-07-02T04:33:46;19.60;99.90
59234;DHT22;60776;51.702;7.462;2023-07-02T04:36:19;19.60;99.90
59234;DHT22;60776;51.702;7.462;2023-07-02T04:38:48;19.60;99.90
59234;DHT22;60776;51.702;7.462;2023-07-02T04:41:13;19.60;99.90
59234;DHT22;60776;51.702;7.462;2023-07-02T04:43:41;19.60;99.90
59234;DHT22;60776;51.702;7.462;2023-07-02T04:46:07;19.50;99.90
59234;DHT22;60776;51.702;7.462;2023-07-02T04:48:33;19.50;99.90
59234;DHT22;60776;51.702;7.462;2023-07-02T04:51:04;19.60;99.90
59234;DHT22;60776;51.702;7.462;2023-07-02T04:53:29;19.60;99.90
59234;DHT22;60776;51.702;7.462;2023-07-02T04:56:06;19.60;99.90
59234;DHT22;60776;51.702;7.462;2023-07-02T04:58:39;19.60;99.90
59234;DHT22;60776;51.702;7.462;2023-07-02T05:01:12;19.70;99.90
59234;DHT22;60776;51.702;7.462;2023-07-02T05:03:40;19.70;99.90
59234;DHT22;60776;51.702;7.462;2023-07-02T05:06:14;19.70;99.90
59234;DHT22;60776;51.702;7.462;2023-07-02T05:08:47;19.80;99.90
59234;DHT22;60776;51.702;7.462;2023-07-02T05:11:15;20.00;99.90
59234;DHT22;60776;51.702;7.462;2023-07-02T05:13:48;20.10;99.90
59234;DHT22;60776;51.702;7.462;2023-07-02T05:16:14;20.40;99.90
59234;DHT22;60776;51.702;7.462;2023-07-02T05:18:49;20.60;99.90
59234;DHT22;60776;51.702;7.462;2023-07-02T05:21:23;20.60;99.90
59234;DHT22;60776;51.702;7.462;2023-07-02T05:23:51;20.70;99.90
59234;DHT22;60776;51.702;7.462;2023-07-02T05:26:23;21.00;99.90
59234;DHT22;60776;51.702;7.462;2023-07-02T05:28:57;21.30;99.90
59234;DHT22;60776;51.702;7.462;2023-07-02T05:31:25;21.50;99.90
59234;DHT22;60776;51.702;7.462;2023-07-02T05:33:58;21.70;99.90
59234;DHT22;60776;51.702;7.462;2023-07-02T05:36:29;21.90;99.90
59234;DHT22;60776;51.702;7.462;2023-07-02T05:39:04;22.70;99.90
59234;DHT22;60776;51.702;7.462;2023-07-02T05:41:32;23.20;99.90
59234;DHT22;60776;51.702;7.462;2023-07-02T05:44:05;23.80;99.90
59234;DHT22;60776;51.702;7.462;2023-07-02T05:46:33;24.40;97.30
59234;DHT22;60776;51.702;7.462;2023-07-02T05:49:09;26.00;94.60
59234;DHT22;60776;51.702;7.462;2023-07-02T05:51:37;27.30;88.30
59234;DHT22;60776;51.702;7.462;2023-07-02T05:54:10;27.50;80.80
59234;DHT22;60776;51.702;7.462;2023-07-02T05:56:38;27.30;78.20
59234;DHT22;60776;51.702;7.462;2023-07-02T05:59:04;28.00;78.60
59234;DHT22;60776;51.702;7.462;2023-07-02T06:01:30;28.40;74.70
59234;DHT22;60776;51.702;7.462;2023-07-02T06:03:58;28.70;73.10
59234;DHT22;60776;51.702;7.462;2023-07-02T06:06:31;28.50;70.30
59234;DHT22;60776;51.702;7.462;2023-07-02T06:09:05;28.10;71.10
59234;DHT22;60776;51.702;7.462;2023-07-02T06:11:34;27.50;70.50
59234;DHT22;60776;51.702;7.462;2023-07-02T06:14:07;27.40;72.70
59234;DHT22;60776;51.702;7.462;2023-07-02T06:16:35;27.10;69.80
59234;DHT22;60776;51.702;7.462;2023-07-02T06:19:08;26.70;71.50
59234;DHT22;60776;51.702;7.462;2023-07-02T06:21:41;26.60;70.50
59234;DHT22;60776;51.702;7.462;2023-07-02T06:24:09;26.10;73.40
59234;DHT22;60776;51.702;7.462;2023-07-02T06:26:43;25.80;75.70
59234;DHT22;60776;51.702;7.462;2023-07-02T06:29:16;25.40;76.70
59234;DHT22;60776;51.702;7.462;2023-07-02T06:31:44;25.90;77.30
59234;DHT22;60776;51.702;7.462;2023-07-02T06:34:17;26.20;76.00
59234;DHT22;60776;51.702;7.462;2023-07-02T06:36:46;27.00;75.20
59234;DHT22;60776;51.702;7.462;2023-07-02T06:39:19;27.60;68.10
59234;DHT22;60776;51.702;7.462;2023-07-02T06:41:52;28.30;69.50
59234;DHT22;60776;51.702;7.462;2023-07-02T06:44:20;30.10;61.00
59234;DHT22;60776;51.702;7.462;2023-07-02T06:46:55;31.40;56.00
59234;DHT22;60776;51.702;7.462;2023-07-02T06:49:23;32.10;51.50
59234;DHT22;60776;51.702;7.462;2023-07-02T06:51:56;33.00;48.40
59234;DHT22;60776;51.702;7.462;2023-07-02T06:54:29;33.50;47.90
59234;DHT22;60776;51.702;7.462;2023-07-02T06:56:57;34.10;46.90
59234;DHT22;60776;51.702;7.462;2023-07-02T06:59:28;35.00;45.30
59234;DHT22;60776;51.702;7.462;2023-07-02T07:01:53;36.00;43.30
59234;DHT22;60776;51.702;7.462;2023-07-02T07:04:19;36.50;41.20
59234;DHT22;60776;51.702;7.462;2023-07-02T07:06:47;36.40;39.90
59234;DHT22;60776;51.702;7.462;2023-07-02T07:09:20;36.20;39.70
59234;DHT22;60776;51.702;7.462;2023-07-02T07:11:53;36.50;40.70
59234;DHT22;60776;51.702;7.462;2023-07-02T07:14:21;36.40;38.40
59234;DHT22;60776;51.702;7.462;2023-07-02T07:16:55;35.50;40.10
59234;DHT22;60776;51.702;7.462;2023-07-02T07:19:28;36.10;40.70
59234;DHT22;60776;51.702;7.462;2023-07-02T07:21:56;36.20;37.90
59234;DHT22;60776;51.702;7.462;2023-07-02T07:24:31;36.50;37.70
59234;DHT22;60776;51.702;7.462;2023-07-02T07:27:00;37.20;37.80
59234;DHT22;60776;51.702;7.462;2023-07-02T07:29:33;37.50;37.40
59234;DHT22;60776;51.702;7.462;2023-07-02T07:32:01;36.50;35.70
59234;DHT22;60776;51.702;7.462;2023-07-02T07:34:35;35.40;37.50
59234;DHT22;60776;51.702;7.462;2023-07-02T07:37:04;35.50;37.10
59234;DHT22;60776;51.702;7.462;2023-07-02T07:39:37;34.40;37.70
59234;DHT22;60776;51.702;7.462;2023-07-02T07:42:11;33.70;39.10
59234;DHT22;60776;51.702;7.462;2023-07-02T07:44:39;33.50;40.00
59234;DHT22;60776;51.702;7.462;2023-07-02T07:47:12;33.50;39.20
59234;DHT22;60776;51.702;7.462;2023-07-02T07:49:40;34.30;39.70
59234;DHT22;60776;51.702;7.462;2023-07-02T07:52:09;35.00;39.40
59234;DHT22;60776;51.702;7.462;2023-07-02T07:54:37;35.40;38.30
59234;DHT22;60776;51.702;7.462;2023-07-02T07:57:04;35.70;37.60
59234;DHT22;60776;51.702;7.462;2023-07-02T07:59:32;35.50;37.60
59234;DHT22;60776;51.702;7.462;2023-07-02T08:02:05;35.10;37.90
59234;DHT22;60776;51.702;7.462;2023-07-02T08:04:33;34.80;38.80
59234;DHT22;60776;51.702;7.462;2023-07-02T08:06:59;35.10;39.30
59234;DHT22;60776;51.702;7.462;2023-07-02T08:09:25;35.00;38.30
59234;DHT22;60776;51.702;7.462;2023-07-02T08:11:53;36.00;38.20
59234;DHT22;60776;51.702;7.462;2023-07-02T08:14:27;36.60;36.80
59234;DHT22;60776;51.702;7.462;2023-07-02T08:16:55;36.80;35.50
59234;DHT22;60776;51.702;7.462;2023-07-02T08:19:21;37.50;35.20
59234;DHT22;60776;51.702;7.462;2023-07-02T08:21:47;36.60;35.00
59234;DHT22;60776;51.702;7.462;2023-07-02T08:24:15;35.60;36.10
59234;DHT22;60776;51.702;7.462;2023-07-02T08:26:48;36.50;36.00
59234;DHT22;60776;51.702;7.462;2023-07-02T08:29:17;37.90;34.30
59234;DHT22;60776;51.702;7.462;2023-07-02T08:31:43;37.50;33.20
59234;DHT22;60776;51.702;7.462;2023-07-02T08:34:09;36.50;34.50
59234;DHT22;60776;51.702;7.462;2023-07-02T08:36:37;35.30;35.00
59234;DHT22;60776;51.702;7.462;2023-07-02T08:39:11;33.70;36.50
59234;DHT22;60776;51.702;7.462;2023-07-02T08:41:47;32.80;37.90
59234;DHT22;60776;51.702;7.462;2023-07-02T08:44:13;32.30;38.70
59234;DHT22;60776;51.702;7.462;2023-07-02T08:46:42;32.60;39.10
59234;DHT22;60776;51.702;7.462;2023-07-02T08:49:08;32.10;39.00
59234;DHT22;60776;51.702;7.462;2023-07-02T09:11:58;38.90;33.90
59234;DHT22;60776;51.702;7.462;2023-07-02T09:14:41;38.50;31.90
59234;DHT22;60776;51.702;7.462;2023-07-02T09:17:08;37.10;33.80
59234;DHT22;60776;51.702;7.462;2023-07-02T09:19:35;37.80;34.40
59234;DHT22;60776;51.702;7.462;2023-07-02T09:56:24;36.90;29.80
59234;DHT22;60776;51.702;7.462;2023-07-02T09:58:50;34.90;31.10
59234;DHT22;60776;51.702;7.462;2023-07-02T10:01:16;34.80;32.90
59234;DHT22;60776;51.702;7.462;2023-07-02T10:17:53;37.70;29.40
59234;DHT22;60776;51.702;7.462;2023-07-02T10:20:34;35.30;31.30
59234;DHT22;60776;51.702;7.462;2023-07-02T10:23:00;33.70;32.60
59234;DHT22;60776;51.702;7.462;2023-07-02T10:56:24;36.20;29.90
59234;DHT22;60776;51.702;7.462;2023-07-02T10:58:51;35.10;31.20
59234;DHT22;60776;51.702;7.462;2023-07-02T11:01:28;34.70;31.90
59234;DHT22;60776;51.702;7.462;2023-07-02T11:03:58;34.60;31.40
59234;DHT22;60776;51.702;7.462;2023-07-02T11:06:28;35.10;32.30
59234;DHT22;60776;51.702;7.462;2023-07-02T11:08:54;36.50;30.60
59234;DHT22;60776;51.702;7.462;2023-07-02T11:11:51;37.90;29.70
59234;DHT22;60776;51.702;7.462;2023-07-02T11:24:33;37.80;30.00
59234;DHT22;60776;51.702;7.462;2023-07-02T11:40:43;40.20;29.10
59234;DHT22;60776;51.702;7.462;2023-07-02T11:46:35;39.00;28.50
59234;DHT22;60776;51.702;7.462;2023-07-02T11:52:43;40.30;27.80
59234;DHT22;60776;51.702;7.462;2023-07-02T11:55:09;41.20;28.30
59234;DHT22;60776;51.702;7.462;2023-07-02T11:57:34;41.30;27.60
59234;DHT22;60776;51.702;7.462;2023-07-02T12:00:00;40.20;27.40
59234;DHT22;60776;51.702;7.462;2023-07-02T12:02:27;38.40;28.20
59234;DHT22;60776;51.702;7.462;2023-07-02T12:04:52;36.80;28.90
59234;DHT22;60776;51.702;7.462;2023-07-02T12:07:18;36.50;29.70
59234;DHT22;60776;51.702;7.462;2023-07-02T12:09:44;36.60;29.80
59234;DHT22;60776;51.702;7.462;2023-07-02T12:12:10;37.60;29.70
59234;DHT22;60776;51.702;7.462;2023-07-02T12:14:36;38.60;29.50
59234;DHT22;60776;51.702;7.462;2023-07-02T12:17:10;39.30;28.30
59234;DHT22;60776;51.702;7.462;2023-07-02T12:19:38;40.20;28.20
59234;DHT22;60776;51.702;7.462;2023-07-02T12:22:05;40.70;28.10
59234;DHT22;60776;51.702;7.462;2023-07-02T12:24:30;41.10;27.90
59234;DHT22;60776;51.702;7.462;2023-07-02T12:26:56;40.20;27.40
59234;DHT22;60776;51.702;7.462;2023-07-02T12:29:21;38.80;27.80
59234;DHT22;60776;51.702;7.462;2023-07-02T12:31:47;37.50;28.80
59234;DHT22;60776;51.702;7.462;2023-07-02T12:34:12;36.10;29.80
59234;DHT22;60776;51.702;7.462;2023-07-02T12:36:38;35.00;30.70
59234;DHT22;60776;51.702;7.462;2023-07-02T12:39:04;35.30;31.40
59234;DHT22;60776;51.702;7.462;2023-07-02T12:41:29;35.80;31.70
59234;DHT22;60776;51.702;7.462;2023-07-02T12:43:56;35.90;31.20
59234;DHT22;60776;51.702;7.462;2023-07-02T12:46:22;35.20;31.40
59234;DHT22;60776;51.702;7.462;2023-07-02T12:48:48;34.50;31.70
59234;DHT22;60776;51.702;7.462;2023-07-02T12:51:13;33.80;32.60
59234;DHT22;60776;51.702;7.462;2023-07-02T12:53:40;33.20;33.70
59234;DHT22;60776;51.702;7.462;2023-07-02T12:56:05;32.70;34.30
59234;DHT22;60776;51.702;7.462;2023-07-02T12:58:31;32.20;35.00
59234;DHT22;60776;51.702;7.462;2023-07-02T13:00:57;31.90;35.10
59234;DHT22;60776;51.702;7.462;2023-07-02T13:03:22;31.50;35.50
59234;DHT22;60776;51.702;7.462;2023-07-02T13:05:50;31.30;36.10
59234;DHT22;60776;51.702;7.462;2023-07-02T13:08:16;31.00;36.70
59234;DHT22;60776;51.702;7.462;2023-07-02T13:10:41;30.70;36.60
59234;DHT22;60776;51.702;7.462;2023-07-02T13:13:07;30.30;36.90
59234;DHT22;60776;51.702;7.462;2023-07-02T13:15:33;30.10;37.70
59234;DHT22;60776;51.702;7.462;2023-07-02T13:18:00;30.00;38.50
59234;DHT22;60776;51.702;7.462;2023-07-02T13:20:25;30.30;39.00
59234;DHT22;60776;51.702;7.462;2023-07-02T13:22:51;30.20;38.20
59234;DHT22;60776;51.702;7.462;2023-07-02T13:25:17;30.00;38.90
59234;DHT22;60776;51.702;7.462;2023-07-02T13:27:42;29.90;39.80
59234;DHT22;60776;51.702;7.462;2023-07-02T13:30:08;29.50;39.50
59234;DHT22;60776;51.702;7.462;2023-07-02T13:32:34;29.30;39.70
59234;DHT22;60776;51.702;7.462;2023-07-02T13:35:00;29.20;40.20
59234;DHT22;60776;51.702;7.462;2023-07-02T13:37:25;29.20;41.40
59234;DHT22;60776;51.702;7.462;2023-07-02T13:39:51;29.30;41.00
59234;DHT22;60776;51.702;7.462;2023-07-02T13:42:17;29.30;41.60
59234;DHT22;60776;51.702;7.462;2023-07-02T13:44:43;29.40;42.30
59234;DHT22;60776;51.702;7.462;2023-07-02T13:47:09;29.50;42.00
59234;DHT22;60776;51.702;7.462;2023-07-02T13:49:36;29.50;42.10
59234;DHT22;60776;51.702;7.462;2023-07-02T13:52:02;29.50;41.40
59234;DHT22;60776;51.702;7.462;2023-07-02T13:54:35;29.50;41.10
59234;DHT22;60776;51.702;7.462;2023-07-02T13:57:01;29.50;41.40
59234;DHT22;60776;51.702;7.462;2023-07-02T13:59:26;29.20;41.80
59234;DHT22;60776;51.702;7.462;2023-07-02T14:01:54;29.10;42.10
59234;DHT22;60776;51.702;7.462;2023-07-02T14:04:20;29.10;42.20
59234;DHT22;60776;51.702;7.462;2023-07-02T14:06:46;28.90;42.80
59234;DHT22;60776;51.702;7.462;2023-07-02T14:09:11;28.90;42.40
59234;DHT22;60776;51.702;7.462;2023-07-02T14:11:40;28.90;42.70
59234;DHT22;60776;51.702;7.462;2023-07-02T14:14:06;28.90;42.00
59234;DHT22;60776;51.702;7.462;2023-07-02T14:16:32;28.90;41.70
59234;DHT22;60776;51.702;7.462;2023-07-02T14:18:57;28.80;41.50
59234;DHT22;60776;51.702;7.462;2023-07-02T14:21:23;28.70;42.10
59234;DHT22;60776;51.702;7.462;2023-07-02T14:23:49;28.60;42.10
59234;DHT22;60776;51.702;7.462;2023-07-02T14:26:22;28.40;42.30
59234;DHT22;60776;51.702;7.462;2023-07-02T14:28:48;28.40;43.00
59234;DHT22;60776;51.702;7.462;2023-07-02T14:31:17;28.30;42.90
59234;DHT22;60776;51.702;7.462;2023-07-02T14:33:43;28.40;43.00
59234;DHT22;60776;51.702;7.462;2023-07-02T14:36:08;28.20;43.30
59234;DHT22;60776;51.702;7.462;2023-07-02T14:38:34;28.10;43.50
59234;DHT22;60776;51.702;7.462;2023-07-02T14:41:00;27.90;43.80
59234;DHT22;60776;51.702;7.462;2023-07-02T14:43:28;27.80;43.10
59234;DHT22;60776;51.702;7.462;2023-07-02T14:45:56;27.60;43.20
59234;DHT22;60776;51.702;7.462;2023-07-02T14:48:22;27.50;43.80
59234;DHT22;60776;51.702;7.462;2023-07-02T14:50:51;27.60;44.20
59234;DHT22;60776;51.702;7.462;2023-07-02T14:53:17;27.70;43.90
59234;DHT22;60776;51.702;7.462;2023-07-02T14:55:44;27.70;43.80
59234;DHT22;60776;51.702;7.462;2023-07-02T14:58:10;27.70;43.90
59234;DHT22;60776;51.702;7.462;2023-07-02T15:00:45;27.60;43.90
59234;DHT22;60776;51.702;7.462;2023-07-02T15:03:14;27.40;43.50
59234;DHT22;60776;51.702;7.462;2023-07-02T15:05:41;27.20;43.00
59234;DHT22;60776;51.702;7.462;2023-07-02T15:08:09;27.10;43.80
59234;DHT22;60776;51.702;7.462;2023-07-02T15:10:40;27.20;44.30
59234;DHT22;60776;51.702;7.462;2023-07-02T15:13:07;27.10;43.90
59234;DHT22;60776;51.702;7.462;2023-07-02T15:15:36;27.00;44.00
59234;DHT22;60776;51.702;7.462;2023-07-02T15:18:02;27.10;43.90
59234;DHT22;60776;51.702;7.462;2023-07-02T15:20:28;27.10;44.40
59234;DHT22;60776;51.702;7.462;2023-07-02T15:22:54;27.40;45.00
59234;DHT22;60776;51.702;7.462;2023-07-02T15:25:20;27.50;44.60
59234;DHT22;60776;51.702;7.462;2023-07-02T15:27:47;27.60;44.80
59234;DHT22;60776;51.702;7.462;2023-07-02T15:30:12;27.60;44.60
59234;DHT22;60776;51.702;7.462;2023-07-02T15:32:41;27.40;45.00
59234;DHT22;60776;51.702;7.462;2023-07-02T15:35:06;27.10;44.80
59234;DHT22;60776;51.702;7.462;2023-07-02T15:37:32;26.90;45.40
59234;DHT22;60776;51.702;7.462;2023-07-02T15:39:58;27.00;45.80
59234;DHT22;60776;51.702;7.462;2023-07-02T15:42:24;27.10;45.80
59234;DHT22;60776;51.702;7.462;2023-07-02T15:44:55;27.20;45.30
59234;DHT22;60776;51.702;7.462;2023-07-02T15:47:21;27.20;45.00
59234;DHT22;60776;51.702;7.462;2023-07-02T15:49:48;27.20;45.30
59234;DHT22;60776;51.702;7.462;2023-07-02T15:52:14;27.10;45.40
59234;DHT22;60776;51.702;7.462;2023-07-02T15:54:39;27.10;45.80
59234;DHT22;60776;51.702;7.462;2023-07-02T15:57:05;26.70;45.60
59234;DHT22;60776;51.702;7.462;2023-07-02T15:59:32;26.40;46.10
59234;DHT22;60776;51.702;7.462;2023-07-02T16:01:58;26.50;46.40
59234;DHT22;60776;51.702;7.462;2023-07-02T16:04:23;26.60;46.20
59234;DHT22;60776;51.702;7.462;2023-07-02T16:06:52;26.60;46.10
59234;DHT22;60776;51.702;7.462;2023-07-02T16:09:18;26.50;46.40
59234;DHT22;60776;51.702;7.462;2023-07-02T16:11:44;26.60;47.00
59234;DHT22;60776;51.702;7.462;2023-07-02T16:14:13;26.50;46.40
59234;DHT22;60776;51.702;7.462;2023-07-02T16:16:41;26.40;45.80
59234;DHT22;60776;51.702;7.462;2023-07-02T16:19:12;26.30;46.10
59234;DHT22;60776;51.702;7.462;2023-07-02T16:21:38;26.30;46.10
59234;DHT22;60776;51.702;7.462;2023-07-02T16:24:15;26.20;45.70
59234;DHT22;60776;51.702;7.462;2023-07-02T16:26:43;26.00;46.30
59234;DHT22;60776;51.702;7.462;2023-07-02T16:29:09;25.80;46.50
59234;DHT22;60776;51.702;7.462;2023-07-02T16:31:34;25.70;46.50
59234;DHT22;60776;51.702;7.462;2023-07-02T16:34:01;25.50;46.90
59234;DHT22;60776;51.702;7.462;2023-07-02T16:36:27;25.50;47.30
59234;DHT22;60776;51.702;7.462;2023-07-02T16:38:53;25.30;47.20
59234;DHT22;60776;51.702;7.462;2023-07-02T16:41:19;25.30;47.30
59234;DHT22;60776;51.702;7.462;2023-07-02T16:43:44;25.30;47.20
59234;DHT22;60776;51.702;7.462;2023-07-02T16:46:10;25.60;46.40
59234;DHT22;60776;51.702;7.462;2023-07-02T16:48:36;25.80;46.50
59234;DHT22;60776;51.702;7.462;2023-07-02T16:51:04;26.00;46.30
59234;DHT22;60776;51.702;7.462;2023-07-02T16:53:31;26.10;46.00
59234;DHT22;60776;51.702;7.462;2023-07-02T16:56:05;26.10;45.50
59234;DHT22;60776;51.702;7.462;2023-07-02T16:58:32;26.00;45.40
59234;DHT22;60776;51.702;7.462;2023-07-02T17:01:02;25.90;45.70
59234;DHT22;60776;51.702;7.462;2023-07-02T17:03:28;25.90;45.70
59234;DHT22;60776;51.702;7.462;2023-07-02T17:05:54;26.00;45.90
59234;DHT22;60776;51.702;7.462;2023-07-02T17:08:23;25.90;45.70
59234;DHT22;60776;51.702;7.462;2023-07-02T17:10:49;25.80;45.90
59234;DHT22;60776;51.702;7.462;2023-07-02T17:13:15;25.70;46.40
59234;DHT22;60776;51.702;7.462;2023-07-02T17:15:40;25.40;46.30
59234;DHT22;60776;51.702;7.462;2023-07-02T17:18:06;25.20;46.20
59234;DHT22;60776;51.702;7.462;2023-07-02T17:20:31;25.10;47.00
59234;DHT22;60776;51.702;7.462;2023-07-02T17:22:59;25.00;46.90
59234;DHT22;60776;51.702;7.462;2023-07-02T17:25:25;24.90;46.90
59234;DHT22;60776;51.702;7.462;2023-07-02T17:27:50;24.90;47.20
59234;DHT22;60776;51.702;7.462;2023-07-02T17:30:23;24.80;47.40
59234;DHT22;60776;51.702;7.462;2023-07-02T17:32:49;24.90;47.60
59234;DHT22;60776;51.702;7.462;2023-07-02T17:35:15;24.80;47.80
59234;DHT22;60776;51.702;7.462;2023-07-02T17:37:41;24.70;48.10
59234;DHT22;60776;51.702;7.462;2023-07-02T17:40:08;24.50;48.10
59234;DHT22;60776;51.702;7.462;2023-07-02T17:42:34;24.50;48.30
59234;DHT22;60776;51.702;7.462;2023-07-02T17:45:00;24.60;48.50
59234;DHT22;60776;51.702;7.462;2023-07-02T17:47:28;24.60;48.50